メインページ
METAR-TAF:

METAR-TAF

空港 :

イスラマバード, パキスタン

ベナジル・ブット国際空港

緯度: 33-37N, 経度: 073-06E, 海抜: 507m

現時点の気象観測

当レポートは16分前の12:00(UTC)に作成
北西の風 4kt
気温 15°C
湿度 82%
気圧 1016 hPa
視程: 7000m
高度5600ftの雲はほとんどない
高度7000ftの曇り

METAR: OPRN 241200Z 31004KT 7000 FEW056 OVC070 15/12 Q1016 TEMPO 13015G25KT 5000 VCTS FEW025TCU RMK A3002

時間: 17:16 (12:16 UTC)

予報

当レポートは2時間46分前の09:30(UTC)に作成
予報は24日の 12時(UTC)から 25日の 18時(UTC)まで有効
南東の風 10kt、最大25ktの突風を伴う
視程: 3000m
高度1000ftの雲は散在している
高度2000ftの雲はほとんどない, 積乱雲.
高度3000ftの千切れ雲あり
高度8000ftの曇り
激しい雷雨, 雨
24日の 14時(UTC)から 24日の 16時(UTC)まで徐々に
西/北西の風 10kt
視程: 4000m
高度3000ftの雲は散在している
高度10000ftの雲は散在している
24日の 23時(UTC)から 25日の 03時(UTC)まで一時的に
散在霧
25日の 03時(UTC)から 25日の 05時(UTC)まで徐々に
視程: 6000m
25日の 15時(UTC)から 25日の 17時(UTC)まで徐々に
煙霧

TAF: OPRN 240930Z 2412/2518 13010G25KT 3000 TSRA SCT010 FEW020CB BKN030 OVC080 BECMG 2414/2416 30010KT 4000 VCTS/RA SCT030 SCT100 TEMPO 2423/2503 BCFG BECMG 2503/2505 6000 NSC BECMG 2515/2517 HZ NSC

4,000以上の空港の気象観測と天気予報(METAR報とTAF報)

利用可能な観測所は地図上に黄色い丸と赤い丸で示す。

丸の上にカーソルを重ねると観測所名を参照できる。

次にクリックすると気象観測と天気予報を参照できる。

マップの切り替え:黒色「×」印の緑ボタンをクリックして拡大、「-」印の緑ボタンをクリックして縮小、緑色の三角印をクリックして隣りの地図に切り替え


METAR-TAF: